Time;durP1;ratioP1;P1;durP2;ratioP2;P2;SDS_P1;SDS_P2;PMS_P1;PMS_P2;Temp;Humidity;BMP_temperature;BMP_pressure;BME280_temperature;BME280_humidity;BME280_pressure;Samples;Min_cycle;Max_cycle;Signal;HPM_P1;HPM_P2
2022/01/20 00:00:44;;;;;;;31.77;18.60;;;;;;;-3.56;100.00;99719.91;5042930;28;20189;-91
2022/01/20 00:03:18;;;;;;;32.07;19.33;;;;;;;-3.47;100.00;99730.56;5043329;28;20520;-91
2022/01/20 00:28:16;;;;;;;24.03;17.60;;;;;;;-142.06;100.00;64312.41;5037911;28;20581;-85
2022/01/20 00:38:17;;;;;;;25.13;16.20;;;;;;;-2.90;100.00;99690.72;5051889;28;20233;-86
2022/01/20 00:40:43;;;;;;;26.33;16.17;;;;;;;-2.75;100.00;99674.47;5033306;28;20226;-93
2022/01/20 00:43:10;;;;;;;24.67;16.03;;;;;;;-2.91;100.00;99668.91;5017960;28;20270;-87
2022/01/20 00:45:47;;;;;;;22.33;15.70;;;;;;;-2.90;100.00;99667.97;5052680;28;20241;-83
2022/01/20 00:48:20;;;;;;;25.97;16.27;;;;;;;-2.74;100.00;99675.31;5037543;28;20221;-85
2022/01/20 00:50:47;;;;;;;24.43;16.30;;;;;;;-2.79;100.00;99699.31;5050560;28;20261;-84
2022/01/20 00:53:17;;;;;;;24.13;15.20;;;;;;;-2.80;100.00;99708.13;5034884;28;20233;-83
2022/01/20 00:55:46;;;;;;;24.73;16.63;;;;;;;-2.77;100.00;99701.81;5019829;28;20313;-84
2022/01/20 00:58:13;;;;;;;25.73;15.97;;;;;;;-2.77;100.00;113921.53;5057065;23;20214;-83
2022/01/20 01:00:59;;;;;;;24.33;15.47;;;;;;;-2.61;100.00;99703.94;5139169;23;20232;-83
2022/01/20 01:04:12;;;;;;;24.77;15.60;;;;;;;-142.06;100.00;64312.41;5074983;28;20181;-84
2022/01/20 01:09:30;;;;;;;18.40;14.73;;;;;;;-2.63;100.00;99696.19;5078150;22;20219;-83
2022/01/20 01:12:01;;;;;;;24.10;15.33;;;;;;;-2.67;100.00;99714.00;5038099;28;20174;-84
2022/01/20 01:14:33;;;;;;;19.67;14.63;;;;;;;-2.71;100.00;99699.47;5056000;28;20205;-83
2022/01/20 01:20:16;;;;;;;22.37;14.17;;;;;;;-2.64;100.00;99699.75;5055232;28;20194;-83
2022/01/20 01:22:45;;;;;;;21.70;14.97;;;;;;;-2.63;100.00;99690.94;5090780;22;20236;-83
2022/01/20 01:25:15;;;;;;;22.73;14.67;;;;;;;-2.67;100.00;99685.13;5076924;28;20200;-85
2022/01/20 01:27:45;;;;;;;21.57;13.63;;;;;;;-2.56;100.00;99701.69;5069967;23;20222;-84
2022/01/20 01:30:38;;;;;;;22.77;14.30;;;;;;;-2.41;100.00;99716.09;5050498;28;20194;-85
2022/01/20 01:33:07;;;;;;;19.80;13.23;;;;;;;-2.28;100.00;99698.31;5048289;28;20198;-84
2022/01/20 01:35:39;;;;;;;16.97;13.17;;;;;;;-2.34;100.00;99680.50;5075043;23;20225;-83
2022/01/20 01:40:38;;;;;;;16.00;10.70;;;;;;;-2.03;100.00;99689.06;5073245;28;20176;-84
2022/01/20 01:43:13;;;;;;;13.03;10.00;;;;;;;-142.06;100.00;64312.41;5071173;28;20185;-83
2022/01/20 01:45:41;;;;;;;16.77;10.10;;;;;;;-1.65;100.00;99690.84;5075011;28;20173;-84
2022/01/20 01:48:16;;;;;;;15.43;10.60;;;;;;;-1.69;100.00;99660.59;5073826;28;20181;-83
2022/01/20 01:50:45;;;;;;;14.03;9.27;;;;;;;-1.29;100.00;99678.72;5072627;28;20192;-83
2022/01/20 01:56:08;;;;;;;13.40;9.27;;;;;;;-1.05;100.00;99679.91;5043044;22;20577;-83
2022/01/20 01:58:38;;;;;;;13.30;9.67;;;;;;;-1.07;100.00;99658.16;5071851;28;20169;-82
2022/01/20 02:01:32;;;;;;;9.27;6.23;;;;;;;-0.58;100.00;99669.28;5098139;22;20229;-83
2022/01/20 02:04:12;;;;;;;6.67;4.73;;;;;;;0.03;100.00;99665.94;5072409;28;20215;-83
2022/01/20 02:20:40;;;;;;;4.63;3.50;;;;;;;2.95;99.67;99621.63;5057202;28;20189;-83
2022/01/20 02:23:14;;;;;;;4.10;3.70;;;;;;;3.27;96.81;99639.22;5103411;22;20240;-83
2022/01/20 02:25:46;;;;;;;5.27;3.80;;;;;;;3.58;92.64;99641.06;5091012;28;20502;-84
2022/01/20 02:28:15;;;;;;;4.50;3.73;;;;;;;3.71;91.65;99623.56;5075263;28;20530;-83
2022/01/20 02:30:43;;;;;;;5.37;4.20;;;;;;;3.82;91.50;99622.34;5075591;28;20208;-83
2022/01/20 02:33:16;;;;;;;4.20;3.47;;;;;;;3.70;91.43;99613.97;5091961;28;20214;-83
2022/01/20 02:35:53;;;;;;;4.07;3.40;;;;;;;4.09;88.40;99626.28;5090866;28;20196;-84
2022/01/20 02:46:52;;;;;;;4.63;4.13;;;;;;;4.60;81.78;99624.66;5032257;28;20197;-83
2022/01/20 02:49:19;;;;;;;4.73;3.53;;;;;;;4.85;79.06;99612.78;4999391;28;20182;-83
2022/01/20 02:51:53;;;;;;;4.23;3.43;;;;;;;4.77;78.34;99611.03;5033485;28;20178;-84
2022/01/20 02:54:22;;;;;;;4.30;3.53;;;;;;;4.97;77.59;99618.44;5052438;23;20216;-82
2022/01/20 02:56:50;;;;;;;5.50;3.50;;;;;;;4.89;76.81;99600.78;5079677;22;20252;-82
2022/01/20 02:59:42;;;;;;;4.87;3.60;;;;;;;4.99;76.67;99603.16;5072628;22;20188;31
2022/01/20 03:02:10;;;;;;;4.50;3.50;;;;;;;4.85;77.35;99586.25;5030732;28;20542;-84
2022/01/20 03:04:41;;;;;;;3.97;3.57;;;;;;;4.96;76.36;99585.75;5071172;23;20232;-83
2022/01/20 03:07:33;;;;;;;5.23;3.00;;;;;;;5.09;75.53;99598.38;5061569;28;20173;-83
2022/01/20 03:10:00;;;;;;;4.63;3.43;;;;;;;4.94;76.07;99563.06;5074917;28;20193;-83
2022/01/20 03:12:26;;;;;;;3.63;3.03;;;;;;;4.99;76.18;99592.56;5041632;28;20199;-83
2022/01/20 03:15:02;;;;;;;4.47;3.53;;;;;;;4.92;75.97;99586.31;5057692;23;20269;-83
2022/01/20 03:17:30;;;;;;;4.17;3.47;;;;;;;4.98;74.97;99588.25;5033508;28;20186;-83
2022/01/20 03:19:57;;;;;;;4.27;3.20;;;;;;;4.97;75.50;99584.75;5034221;28;20174;-83
2022/01/20 03:22:24;;;;;;;4.20;3.80;;;;;;;5.05;75.55;99602.41;5069107;23;20281;-83
2022/01/20 03:24:51;;;;;;;5.00;3.47;;;;;;;5.01;76.04;99594.00;5071127;22;20707;-84
2022/01/20 03:27:18;;;;;;;3.40;3.10;;;;;;;4.96;76.46;99598.22;5060485;22;20648;-84
2022/01/20 03:29:45;;;;;;;3.27;2.97;;;;;;;5.06;75.57;99586.31;5049463;28;20190;-83
2022/01/20 03:32:21;;;;;;;3.40;2.90;;;;;;;5.11;74.64;99589.22;5058726;23;20198;31
2022/01/20 03:34:52;;;;;;;4.53;3.60;;;;;;;5.26;74.42;99586.56;4973805;28;20212;-83
2022/01/20 03:37:19;;;;;;;5.23;3.37;;;;;;;5.19;75.01;99580.31;5066590;22;20265;-83
2022/01/20 03:40:16;;;;;;;5.50;3.40;;;;;;;5.06;76.02;99585.47;5062696;22;20225;-83
2022/01/20 03:42:43;;;;;;;4.03;3.60;;;;;;;4.91;75.61;99569.56;5073095;28;20203;-82
2022/01/20 03:45:11;;;;;;;3.30;2.73;;;;;;;5.05;75.33;99571.38;5057515;28;20216;-83
2022/01/20 03:47:40;;;;;;;3.30;2.70;;;;;;;4.95;76.21;99562.03;5073656;28;20193;-82
2022/01/20 03:50:59;;;;;;;3.20;2.90;;;;;;;5.06;75.11;99570.38;5057351;28;20203;-83
2022/01/20 03:52:58;;;;;;;4.37;3.30;;;;;;;5.04;75.57;99553.78;5092490;28;20200;-83
2022/01/20 03:55:26;;;;;;;3.57;3.10;;;;;;;5.05;74.53;99555.44;5090511;28;20216;-83
2022/01/20 03:58:16;;;;;;;3.53;3.10;;;;;;;5.06;74.61;99557.09;5091983;28;20617;-83
2022/01/20 04:00:45;;;;;;;3.97;3.03;;;;;;;5.02;74.56;99549.69;5077923;28;20165;-83
2022/01/20 04:03:31;;;;;;;3.87;2.97;;;;;;;5.01;74.43;99550.69;5098589;22;20245;-83
2022/01/20 04:06:14;;;;;;;3.93;3.30;;;;;;;4.95;74.16;99552.25;5089994;28;20256;-83
2022/01/20 04:08:47;;;;;;;3.83;2.93;;;;;;;5.08;73.32;99568.38;5015163;28;20274;-84
2022/01/20 04:11:21;;;;;;;3.33;3.00;;;;;;;5.05;73.70;99570.53;5087422;23;20220;-82
2022/01/20 04:13:50;;;;;;;3.47;2.90;;;;;;;5.10;73.72;99570.81;5094109;28;20195;-83
2022/01/20 04:17:16;;;;;;;3.57;3.27;;;;;;;5.14;73.01;99575.56;5105200;22;20176;-82
2022/01/20 04:19:37;;;;;;;4.23;3.40;;;;;;;5.18;72.78;99565.41;5067958;28;20202;-83
2022/01/20 04:22:10;;;;;;;3.03;2.70;;;;;;;5.20;72.81;99566.88;5065996;23;20229;-84
2022/01/20 04:24:39;;;;;;;3.30;3.00;;;;;;;5.17;72.77;99567.25;5059423;22;20212;-82
2022/01/20 04:27:06;;;;;;;4.23;3.00;;;;;;;5.14;73.44;99577.41;5037813;28;20213;-82
2022/01/20 04:29:44;;;;;;;3.77;3.33;;;;;;;5.11;73.44;99562.66;5056460;28;20642;-82
2022/01/20 04:32:11;;;;;;;3.80;3.40;;;;;;;5.11;74.00;99562.66;5019860;28;20214;-82
2022/01/20 04:34:38;;;;;;;4.33;3.30;;;;;;;5.09;73.94;99559.38;5041091;28;20233;-83
2022/01/20 04:37:08;;;;;;;3.90;3.10;;;;;;;5.15;73.76;99563.94;5055171;28;20250;-83
2022/01/20 04:39:41;;;;;;;3.43;3.13;;;;;;;5.10;74.61;99561.03;5054018;28;20204;-83
2022/01/20 04:42:10;;;;;;;4.13;3.73;;;;;;;5.00;74.86;99552.50;5040315;28;20196;-83
2022/01/20 04:44:48;;;;;;;3.40;3.10;;;;;;;5.21;73.31;99565.88;5022660;28;20209;-83
2022/01/20 04:47:34;;;;;;;4.37;3.70;;;;;;;5.17;74.72;99567.25;5070139;23;20232;-83
2022/01/20 04:58:32;;;;;;;3.30;3.00;;;;;;;5.23;73.68;99553.19;5080420;22;20194;-83
2022/01/20 05:01:03;;;;;;;4.23;2.83;;;;;;;5.24;74.11;99564.66;5071336;28;20194;-83
2022/01/20 05:04:08;;;;;;;3.53;2.80;;;;;;;5.22;74.41;99562.19;5029021;28;20189;-83
2022/01/20 05:07:23;;;;;;;3.40;2.93;;;;;;;5.14;74.68;99559.63;5043777;23;20218;-83
2022/01/20 05:09:53;;;;;;;3.93;2.97;;;;;;;5.06;75.67;99548.31;5020009;28;20205;-83
2022/01/20 05:12:30;;;;;;;3.20;2.60;;;;;;;5.15;75.59;99558.63;5035191;28;20269;-83
2022/01/20 05:15:02;;;;;;;2.80;2.60;;;;;;;5.18;75.88;99557.44;5035698;28;20194;-83
2022/01/20 05:17:35;;;;;;;3.50;2.73;;;;;;;5.16;76.36;99567.44;5052795;28;20205;-83
2022/01/20 05:20:03;;;;;;;4.50;3.00;;;;;;;5.20;75.62;99552.75;5034179;28;20198;-82
2022/01/20 05:22:29;;;;;;;3.07;2.67;;;;;;;5.07;77.15;99548.13;5018625;28;20201;-83
2022/01/20 05:24:59;;;;;;;3.13;2.70;;;;;;;5.06;77.65;99549.13;5019221;28;20589;-84
2022/01/20 05:27:29;;;;;;;2.73;2.50;;;;;;;5.06;77.31;99549.13;5032210;28;20183;-81
2022/01/20 05:30:00;;;;;;;3.63;2.53;;;;;;;5.04;77.93;99553.78;5030725;23;20287;-81
2022/01/20 05:32:30;;;;;;;3.83;2.80;;;;;;;5.00;77.87;99533.09;5130418;22;20184;-80
2022/01/20 05:34:59;;;;;;;2.77;2.50;;;;;;;5.18;77.53;99554.78;5055487;23;20232;-80
2022/01/20 05:37:27;;;;;;;2.80;2.50;;;;;;;5.19;77.75;99549.28;5082870;22;20215;-80
2022/01/20 05:39:54;;;;;;;2.80;2.50;;;;;;;5.09;78.21;99542.59;5090280;28;20216;-81
2022/01/20 05:42:25;;;;;;;2.87;2.40;;;;;;;5.04;78.95;99550.34;5091977;28;20211;-81
2022/01/20 05:45:16;;;;;;;2.20;2.00;;;;;;;5.13;78.48;99547.34;5105437;22;20577;-81
2022/01/20 05:48:09;;;;;;;2.60;2.00;;;;;;;5.23;77.21;99539.91;5109059;28;20203;-80
2022/01/20 05:50:54;;;;;;;2.80;2.10;;;;;;;5.14;78.99;99556.97;5118761;22;20227;-81
2022/01/20 05:53:21;;;;;;;2.60;2.17;;;;;;;5.09;80.23;99555.88;5078635;28;20218;-81
2022/01/20 05:56:01;;;;;;;2.20;2.00;;;;;;;5.14;79.50;99550.84;5113429;28;20195;-80
2022/01/20 05:58:41;;;;;;;3.03;2.10;;;;;;;5.17;79.30;99556.63;5092677;28;20551;-81
2022/01/20 06:01:15;;;;;;;3.30;1.80;;;;;;;5.09;80.21;99548.75;5110154;28;20237;-81
2022/01/20 06:03:51;;;;;;;1.83;1.60;;;;;;;5.26;80.30;99555.50;5096372;28;20198;-82
2022/01/20 06:06:35;;;;;;;1.60;1.47;;;;;;;5.25;80.11;99531.78;5112802;28;20164;-81
2022/01/20 06:09:07;;;;;;;1.57;1.47;;;;;;;5.39;80.58;99536.22;5095299;28;20176;-81
2022/01/20 06:11:40;;;;;;;1.70;1.40;;;;;;;5.28;81.20;99532.22;5115722;22;20221;-80
2022/01/20 06:14:17;;;;;;;2.20;1.50;;;;;;;5.38;81.01;99533.75;5088880;28;20184;-81
2022/01/20 06:16:44;;;;;;;1.50;1.40;;;;;;;5.20;81.15;99532.34;5075340;28;20181;-81
2022/01/20 06:19:27;;;;;;;2.10;1.57;;;;;;;5.25;81.39;99529.13;5156259;22;20250;-80
2022/01/20 06:22:01;;;;;;;1.97;1.47;;;;;;;5.24;82.00;99535.44;5103492;22;20223;-80
2022/01/20 06:27:24;;;;;;;1.63;1.53;;;;;;;5.17;81.91;99526.59;5048697;28;20214;-80
2022/01/20 06:29:54;;;;;;;2.27;1.60;;;;;;;5.20;81.28;99515.56;5049688;28;20181;-80
2022/01/20 06:32:29;;;;;;;1.67;1.50;;;;;;;5.09;82.20;99524.84;5128514;22;20235;-80
2022/01/20 06:34:59;;;;;;;2.23;1.83;;;;;;;5.09;82.81;99550.56;5235786;23;20204;-80
2022/01/20 06:37:29;;;;;;;2.00;1.70;;;;;;;5.07;83.36;99534.84;5110303;28;20168;-80
2022/01/20 06:40:00;;;;;;;1.60;1.50;;;;;;;5.02;84.35;99545.19;5078327;28;20188;-81
2022/01/20 06:42:38;;;;;;;2.20;2.00;;;;;;;4.95;84.01;99533.66;5123226;22;20236;-80
2022/01/20 06:45:09;;;;;;;2.03;1.80;;;;;;;4.85;85.37;99518.03;5091295;28;20223;-81
2022/01/20 06:47:36;;;;;;;1.90;1.80;;;;;;;4.87;84.43;99508.06;5088746;28;20215;-81
2022/01/20 06:50:11;;;;;;;2.43;1.83;;;;;;;4.94;83.51;99489.56;5092096;22;20212;-80
2022/01/20 06:52:51;;;;;;;1.70;1.50;;;;;;;5.03;83.23;99507.03;5119388;22;20242;-80
2022/01/20 06:55:35;;;;;;;2.40;1.70;;;;;;;5.02;83.07;99509.84;5085978;23;20224;-79
2022/01/20 06:58:10;;;;;;;2.80;1.90;;;;;;;4.96;82.91;99507.94;5112360;28;20196;-80
2022/01/20 07:00:37;;;;;;;1.77;1.67;;;;;;;4.97;82.46;99509.59;5060955;28;20192;-80
2022/01/20 07:03:13;;;;;;;1.73;1.50;;;;;;;4.82;83.74;99515.75;5062703;28;20188;-80
2022/01/20 07:05:40;;;;;;;2.20;1.70;;;;;;;4.78;84.38;99509.16;5101893;22;20227;-79
2022/01/20 07:08:08;;;;;;;2.70;1.80;;;;;;;4.83;83.29;99508.63;5076951;28;20188;-81
2022/01/20 07:10:35;;;;;;;1.60;1.50;;;;;;;4.87;83.45;99510.72;5078000;28;20191;-80
2022/01/20 07:13:04;;;;;;;2.00;1.50;;;;;;;4.98;82.27;99497.97;5079612;28;20252;-79
2022/01/20 07:15:32;;;;;;;1.87;1.60;;;;;;;5.03;82.38;99522.97;5098643;28;20216;-81
2022/01/20 07:18:02;;;;;;;2.93;1.50;;;;;;;4.94;82.44;99515.28;5083795;28;20200;-80
2022/01/20 07:20:30;;;;;;;1.67;1.40;;;;;;;5.13;81.76;99526.13;5082476;28;20572;-80
2022/01/20 07:23:26;;;;;;;1.97;1.80;;;;;;;5.10;81.54;99517.69;5116564;28;20252;-81
2022/01/20 07:26:00;;;;;;;1.37;1.27;;;;;;;5.26;81.03;99526.28;5119904;22;20224;-79
2022/01/20 07:28:42;;;;;;;1.30;1.20;;;;;;;5.16;80.71;99535.56;5115084;28;20199;-80
2022/01/20 07:31:15;;;;;;;1.30;1.20;;;;;;;5.18;81.52;99523.72;5080077;23;20292;-80
2022/01/20 07:34:00;;;;;;;1.33;1.23;;;;;;;5.33;79.72;99535.13;5081179;28;20193;-80
2022/01/20 07:36:31;;;;;;;1.80;1.50;;;;;;;5.35;79.28;99523.50;5099798;22;20263;-80
2022/01/20 07:39:08;;;;;;;1.43;1.30;;;;;;;5.22;80.02;99529.50;5055694;23;20208;-80
2022/01/20 07:41:38;;;;;;;2.43;1.57;;;;;;;5.17;80.45;99526.59;5105553;22;20179;-79
2022/01/20 07:44:36;;;;;;;1.33;1.23;;;;;;;5.21;80.41;99528.69;5110166;28;20176;-80
2022/01/20 07:47:23;;;;;;;2.17;1.20;;;;;;;5.23;81.01;99533.78;5119071;28;20194;-81
2022/01/20 07:49:51;;;;;;;1.40;1.30;;;;;;;5.21;81.51;99535.81;5109622;22;20232;-80
2022/01/20 07:52:20;;;;;;;1.30;1.10;;;;;;;5.15;81.79;99520.63;5056005;28;20194;-80
2022/01/20 07:54:49;;;;;;;1.40;1.23;;;;;;;5.25;81.38;99523.81;5080150;22;20221;-81
2022/01/20 07:57:18;;;;;;;1.03;0.93;;;;;;;5.29;81.47;99525.91;5059239;28;20194;-80
2022/01/20 07:59:47;;;;;;;1.60;1.27;;;;;;;5.22;81.69;99534.81;5072325;28;20181;-80
2022/01/20 08:02:29;;;;;;;1.17;1.07;;;;;;;5.27;80.83;99540.41;5049348;23;20235;-80
2022/01/20 08:05:00;;;;;;;1.10;1.00;;;;;;;5.21;80.91;99534.00;5078078;23;20229;-80
2022/01/20 08:07:29;;;;;;;1.07;0.97;;;;;;;5.31;81.59;99544.31;5044014;23;20264;-79
2022/01/20 08:09:59;;;;;;;1.10;1.00;;;;;;;5.24;81.02;99536.25;5022237;28;20565;-80
2022/01/20 08:12:40;;;;;;;1.20;1.10;;;;;;;5.27;81.04;99546.50;5041640;28;20261;-80
2022/01/20 08:15:15;;;;;;;0.80;0.80;;;;;;;5.24;81.61;99528.28;5071107;28;20447;-80
2022/01/20 08:17:59;;;;;;;1.07;0.90;;;;;;;5.49;80.81;99554.50;5055861;28;20173;-80
2022/01/20 08:20:38;;;;;;;1.23;1.00;;;;;;;5.46;80.02;99552.25;5047900;28;20186;-81
2022/01/20 08:23:11;;;;;;;1.10;1.00;;;;;;;5.45;80.97;99547.94;5054462;28;20177;-80
2022/01/20 08:25:46;;;;;;;1.10;1.00;;;;;;;5.38;81.15;99547.03;5038991;28;20170;-82
2022/01/20 08:28:17;;;;;;;0.87;0.83;;;;;;;5.28;80.84;99534.88;5052224;28;20201;-81
2022/01/20 08:30:44;;;;;;;1.43;0.77;;;;;;;5.47;80.75;99565.31;5052299;28;20185;-81
2022/01/20 08:33:14;;;;;;;0.80;0.63;;;;;;;5.59;80.31;99579.78;5035766;28;20209;-81
2022/01/20 08:36:05;;;;;;;1.30;1.00;;;;;;;5.57;80.80;99573.81;5038160;28;20260;-81
2022/01/20 08:38:51;;;;;;;0.63;0.63;;;;;;;5.41;81.30;99566.09;5068928;28;20245;-80
2022/01/20 08:41:19;;;;;;;1.03;0.60;;;;;;;5.45;82.18;99572.69;5048858;28;20185;-81
2022/01/20 08:43:49;;;;;;;0.87;0.87;;;;;;;5.47;82.87;99594.56;5053415;28;20224;-80
2022/01/20 08:46:21;;;;;;;1.87;0.80;;;;;;;5.30;84.27;99582.50;5036279;28;20193;-81
2022/01/20 08:48:50;;;;;;;0.70;0.53;;;;;;;5.33;84.55;99595.41;5036319;28;20186;-81
2022/01/20 08:51:26;;;;;;;0.90;0.80;;;;;;;5.34;85.01;99589.09;5035763;28;20216;-81
2022/01/20 08:54:06;;;;;;;1.03;0.83;;;;;;;5.35;85.51;99584.59;5050422;28;20260;-81
2022/01/20 08:56:34;;;;;;;0.60;0.60;;;;;;;5.24;85.86;99560.16;5017244;28;20232;-80
2022/01/20 08:59:06;;;;;;;0.70;0.70;;;;;;;5.28;85.99;99579.19;5049077;28;20182;-81
2022/01/20 09:01:35;;;;;;;0.60;0.60;;;;;;;5.27;84.98;99565.09;5034740;28;20220;-81
2022/01/20 09:04:03;;;;;;;0.77;0.77;;;;;;;5.27;85.24;99559.78;5051707;28;20197;-80
2022/01/20 09:06:32;;;;;;;0.70;0.70;;;;;;;5.21;85.93;99552.59;5046507;28;20464;-81
2022/01/20 09:09:11;;;;;;;0.80;0.80;;;;;;;5.24;84.64;99554.03;5016172;28;20251;-81
2022/01/20 09:11:50;;;;;;;1.13;0.90;;;;;;;5.23;85.69;99566.47;5047051;28;20590;-81
2022/01/20 09:17:07;;;;;;;0.70;0.70;;;;;;;5.19;87.14;99567.03;5047961;28;20232;-81
2022/01/20 09:19:36;;;;;;;0.90;0.77;;;;;;;5.13;87.34;99567.81;5057303;23;20261;-81
2022/01/20 09:22:07;;;;;;;0.87;0.70;;;;;;;5.21;86.90;99552.59;5021492;28;20209;-80
2022/01/20 09:24:39;;;;;;;0.70;0.70;;;;;;;5.25;87.16;99553.84;5059751;28;20585;-81
2022/01/20 09:27:06;;;;;;;1.10;1.00;;;;;;;5.26;88.92;99560.00;5054403;28;20576;-81
2022/01/20 09:29:35;;;;;;;0.80;0.80;;;;;;;5.28;89.01;99556.13;5071915;23;20543;-81
2022/01/20 09:32:12;;;;;;;0.80;0.80;;;;;;;5.22;88.53;99551.59;5054778;28;20247;-81
2022/01/20 09:34:44;;;;;;;0.83;0.80;;;;;;;5.26;89.00;99566.13;5066217;28;20240;-81
2022/01/20 09:37:12;;;;;;;1.00;0.90;;;;;;;5.32;89.34;99559.22;5058258;28;20206;-80
2022/01/20 09:39:45;;;;;;;0.87;0.87;;;;;;;5.30;90.35;99555.94;5054487;28;20245;-81
2022/01/20 09:42:34;;;;;;;1.40;0.90;;;;;;;5.29;89.13;99560.44;5066167;28;20206;-81
2022/01/20 09:45:18;;;;;;;1.10;1.00;;;;;;;5.24;89.00;99554.84;5067719;28;20189;-80
2022/01/20 09:47:49;;;;;;;1.03;0.93;;;;;;;5.26;88.33;99546.72;5068406;28;20194;-81
2022/01/20 09:50:39;;;;;;;0.90;0.90;;;;;;;5.33;88.75;99561.69;5048801;28;20624;-81
2022/01/20 09:53:30;;;;;;;0.80;0.80;;;;;;;5.48;87.90;99547.53;5040731;28;20205;-81
2022/01/20 09:56:21;;;;;;;1.73;1.00;;;;;;;5.45;86.01;99540.78;5029113;28;20210;-80
2022/01/20 09:58:48;;;;;;;1.70;1.30;;;;;;;5.58;85.44;99535.59;5063121;28;20197;-81
2022/01/20 10:01:40;;;;;;;4.33;2.80;;;;;;;5.81;84.69;99553.19;5052138;28;20190;-80
2022/01/20 10:04:27;;;;;;;1.70;1.60;;;;;;;5.79;84.95;99537.41;5074558;23;20217;-81
2022/01/20 10:07:01;;;;;;;2.57;2.30;;;;;;;6.04;84.63;99535.22;5052067;28;20182;-81
2022/01/20 10:09:38;;;;;;;1.07;0.90;;;;;;;5.95;84.42;99537.19;5067976;28;20239;-80
2022/01/20 10:12:21;;;;;;;1.50;1.40;;;;;;;5.88;85.14;99530.19;5053992;28;20200;-81
2022/01/20 10:15:01;;;;;;;1.30;1.20;;;;;;;5.70;85.49;99552.69;5088067;22;20241;-80
2022/01/20 10:18:04;;;;;;;1.30;1.20;;;;;;;5.83;85.27;99530.72;5078776;28;20180;-80
2022/01/20 10:20:32;;;;;;;1.03;1.00;;;;;;;5.86;84.26;99530.34;5071574;28;20200;-81
2022/01/20 10:23:37;;;;;;;1.90;1.40;;;;;;;6.02;83.52;99524.75;5097942;22;20233;-81
2022/01/20 10:26:25;;;;;;;2.10;1.73;;;;;;;6.09;82.11;99525.66;5049858;28;20232;-80
2022/01/20 10:29:06;;;;;;;1.50;1.40;;;;;;;6.16;81.76;99528.34;5049600;28;20193;-81
2022/01/20 10:31:51;;;;;;;2.57;2.37;;;;;;;6.16;82.34;99520.34;5048846;28;20200;-80
2022/01/20 10:34:31;;;;;;;1.83;1.30;;;;;;;6.20;81.30;99527.75;5047241;28;20194;-80
2022/01/20 10:37:14;;;;;;;0.80;0.80;;;;;;;6.43;80.00;99521.38;5137798;22;20230;-81
2022/01/20 10:40:08;;;;;;;0.90;0.90;;;;;;;6.56;79.46;99516.94;5047366;28;20257;-79
2022/01/20 10:42:43;;;;;;;1.40;0.70;;;;;;;6.61;79.62;99503.88;5032372;28;20190;-80
2022/01/20 10:45:25;;;;;;;3.10;2.73;;;;;;;6.66;76.71;99513.94;5049545;28;20238;-80
2022/01/20 10:47:59;;;;;;;2.67;1.80;;;;;;;6.57;76.65;99491.97;5047737;28;20648;-81
2022/01/20 10:50:36;;;;;;;2.40;2.20;;;;;;;6.76;75.89;99503.75;5032051;28;20213;-81
2022/01/20 10:53:23;;;;;;;1.93;1.60;;;;;;;6.71;74.37;99506.19;5032973;28;20262;-81
2022/01/20 10:56:07;;;;;;;2.17;1.70;;;;;;;6.51;75.32;99497.25;5048150;28;20218;-81
2022/01/20 10:58:36;;;;;;;1.43;1.10;;;;;;;6.54;74.68;99483.53;5024919;28;20285;-80
2022/01/20 11:01:14;;;;;;;1.33;1.23;;;;;;;6.60;75.30;99469.44;5040580;28;20205;-80
2022/01/20 11:03:45;;;;;;;1.20;1.10;;;;;;;6.69;74.07;99476.25;5031273;28;20178;-81
2022/01/20 11:06:16;;;;;;;1.57;1.10;;;;;;;6.64;73.85;99460.88;5029066;28;20198;-80
2022/01/20 11:08:52;;;;;;;1.20;1.10;;;;;;;6.64;73.21;99476.03;5011952;28;20175;-80
2022/01/20 11:11:28;;;;;;;1.77;1.10;;;;;;;6.39;69.12;99472.22;5012833;28;20293;-79
2022/01/20 11:14:14;;;;;;;1.90;1.23;;;;;;;6.68;68.81;99481.75;5028713;28;20247;-80
2022/01/20 11:16:47;;;;;;;1.60;1.50;;;;;;;6.91;67.43;99451.13;5026358;28;20211;-83
2022/01/20 11:19:21;;;;;;;2.00;1.40;;;;;;;7.15;65.57;99489.72;5026941;28;20171;-81
2022/01/20 11:22:13;;;;;;;1.60;1.50;;;;;;;7.27;64.43;99476.66;5012137;28;20254;-80
2022/01/20 11:25:01;;;;;;;2.03;1.17;;;;;;;7.27;63.47;99484.66;5028334;28;20224;-80
2022/01/20 11:27:51;;;;;;;1.40;1.30;;;;;;;7.32;63.00;99460.88;5029838;28;20195;-80
2022/01/20 11:30:32;;;;;;;1.80;1.53;;;;;;;7.27;62.99;99472.16;5013170;28;20261;-80
2022/01/20 11:33:17;;;;;;;1.43;1.13;;;;;;;7.47;62.93;99459.66;5013144;28;20187;-80
2022/01/20 11:36:02;;;;;;;1.90;1.40;;;;;;;7.45;62.88;99464.38;5030042;28;20211;-80
2022/01/20 11:38:37;;;;;;;1.70;1.20;;;;;;;7.83;61.77;99451.28;5047219;23;20239;-80
2022/01/20 11:41:05;;;;;;;1.93;1.57;;;;;;;7.70;60.77;99429.13;5051765;28;20186;-80
2022/01/20 11:43:46;;;;;;;2.03;1.60;;;;;;;7.43;60.21;99421.09;5068017;28;20186;-80
2022/01/20 11:46:20;;;;;;;3.70;1.30;;;;;;;7.28;60.54;99404.47;5050255;28;20170;-80
2022/01/20 11:49:00;;;;;;;2.63;1.30;;;;;;;7.31;59.91;99409.44;5066780;28;20174;-80
2022/01/20 11:51:42;;;;;;;2.13;1.27;;;;;;;7.14;59.63;99391.38;5052344;28;20198;-80
2022/01/20 11:54:33;;;;;;;2.13;1.30;;;;;;;7.19;58.89;99410.22;5053709;28;20656;-81
2022/01/20 11:57:14;;;;;;;1.43;1.10;;;;;;;7.01;58.25;99394.81;5067730;28;20217;-80
2022/01/20 11:59:45;;;;;;;1.30;1.20;;;;;;;7.02;58.61;99425.78;5068447;28;20178;-80
2022/01/20 12:02:37;;;;;;;1.90;1.50;;;;;;;6.89;60.24;99399.94;5038711;28;20273;-81
2022/01/20 12:05:31;;;;;;;1.53;1.20;;;;;;;6.51;61.32;99378.31;5042504;28;20188;-81
2022/01/20 12:09:11;;;;;;;1.97;1.20;;;;;;;6.54;61.14;99361.94;5059433;28;20498;-80
2022/01/20 12:11:41;;;;;;;1.43;1.00;;;;;;;6.46;60.26;99367.44;5037584;28;20226;-79
2022/01/20 12:14:09;;;;;;;1.40;1.10;;;;;;;6.54;59.91;99369.09;5017760;28;20224;-79
2022/01/20 12:16:41;;;;;;;1.83;1.20;;;;;;;6.55;60.21;99342.28;5035491;28;20266;-80
2022/01/20 12:19:10;;;;;;;1.40;1.10;;;;;;;6.54;61.35;99340.63;5052062;28;20186;-80
2022/01/20 12:21:38;;;;;;;1.30;1.20;;;;;;;6.75;59.62;99336.19;5017374;28;20190;-81
2022/01/20 12:24:06;;;;;;;2.07;1.10;;;;;;;6.83;59.59;99342.13;5033743;28;20500;-81
2022/01/20 12:26:35;;;;;;;1.73;1.10;;;;;;;6.88;59.86;99317.56;5052409;28;20196;-81
2022/01/20 12:29:09;;;;;;;2.37;1.30;;;;;;;6.79;60.10;99298.31;5035188;28;20194;-81
2022/01/20 12:31:53;;;;;;;2.13;1.30;;;;;;;6.75;60.33;99297.06;5053572;28;20225;-81
2022/01/20 12:34:26;;;;;;;1.17;1.10;;;;;;;6.84;60.79;99311.00;5052283;28;20244;-80
2022/01/20 12:36:58;;;;;;;1.83;1.00;;;;;;;6.86;60.51;99293.78;5056877;22;20259;-79
2022/01/20 12:39:28;;;;;;;1.67;1.30;;;;;;;6.84;61.02;99290.53;5077161;28;20196;-80
2022/01/20 12:41:58;;;;;;;1.60;1.10;;;;;;;6.80;61.22;99291.97;5095539;28;20192;-80
2022/01/20 12:45:05;;;;;;;2.03;1.13;;;;;;;6.88;61.62;99297.09;5064488;28;20227;-80
2022/01/20 12:47:37;;;;;;;1.50;1.20;;;;;;;6.87;61.51;99283.97;5078238;28;20204;-80
2022/01/20 12:50:05;;;;;;;1.70;1.13;;;;;;;6.88;61.01;99258.97;5121413;22;20227;-82
2022/01/20 12:52:48;;;;;;;1.60;1.10;;;;;;;6.86;59.53;99261.03;5097951;28;20177;-80
2022/01/20 12:55:20;;;;;;;2.07;1.10;;;;;;;6.88;58.28;99290.94;5080405;28;20206;-80
2022/01/20 12:57:59;;;;;;;1.80;1.10;;;;;;;6.89;56.86;99287.25;5077127;28;20212;-80
2022/01/20 13:00:27;;;;;;;2.67;1.20;;;;;;;6.88;55.70;99269.63;5093249;28;20219;-80
2022/01/20 13:02:58;;;;;;;2.03;1.13;;;;;;;6.90;55.41;99262.28;5093921;28;20188;-80
2022/01/20 13:05:41;;;;;;;1.77;1.13;;;;;;;7.09;55.76;99272.09;5111391;28;20186;-80
2022/01/20 13:08:10;;;;;;;1.20;0.90;;;;;;;7.04;54.94;99272.72;5059257;28;20180;-80
2022/01/20 13:10:39;;;;;;;1.43;1.10;;;;;;;7.01;56.73;99273.13;5090955;28;20185;-80
2022/01/20 13:13:16;;;;;;;2.03;1.23;;;;;;;6.88;57.53;99269.63;5091821;28;20183;-80
2022/01/20 13:15:46;;;;;;;2.03;1.10;;;;;;;6.99;56.80;99240.56;5092665;28;20188;-79
2022/01/20 13:18:15;;;;;;;1.70;1.20;;;;;;;6.98;57.02;99273.53;5109340;28;20185;-80
2022/01/20 13:20:58;;;;;;;2.37;1.00;;;;;;;7.14;56.84;99280.28;5091208;28;20584;-80
2022/01/20 13:26:08;;;;;;;2.23;1.00;;;;;;;6.86;56.43;99274.34;5091526;28;20184;-81
2022/01/20 13:28:37;;;;;;;1.53;1.00;;;;;;;6.90;56.29;99279.06;5109561;28;20210;-81
2022/01/20 13:31:17;;;;;;;1.30;1.03;;;;;;;6.62;56.61;99255.25;5082028;22;20248;-81
2022/01/20 13:33:49;;;;;;;1.40;1.10;;;;;;;6.71;57.31;99292.38;5038307;28;20200;-81
2022/01/20 13:36:20;;;;;;;1.77;1.20;;;;;;;6.57;58.38;99267.56;5089132;28;20604;-81
2022/01/20 13:38:59;;;;;;;2.60;1.20;;;;;;;6.57;58.69;99264.91;5087437;28;20208;-81